This is the latest recevied weather packets stored in our database for station/object W7TJC. If no packets are shown the sender has not sent any weather packets the latest 1 day(s).
| Time | Temp. | Humidity | Pressure | Rain* | Wind** | Luminosity | Snow |
|---|---|---|---|---|---|---|---|
| 1778034940 | 16.11° C | 80% | 1016.2 hPa | 0 mm | 0 m/s | 4 W/m² | - |
| 1778034638 | 16.11° C | 79% | 1016.3 hPa | 0 mm | 0 m/s | 5 W/m² | - |
| 1778034335 | 16.11° C | 79% | 1016.3 hPa | 0 mm | 0 m/s | 6 W/m² | - |
| 1778034032 | 16.11° C | 79% | 1016.4 hPa | 0 mm | 0 m/s | 6 W/m² | - |
| 1778033729 | 16.11° C | 79% | 1016.4 hPa | 0 mm | 0 m/s | 7 W/m² | - |
| 1778033427 | 16.67° C | 78% | 1016.2 hPa | 0 mm | 0 m/s | 7 W/m² | - |
| 1778033124 | 16.67° C | 78% | 1016.2 hPa | 0 mm | 0 m/s | 9 W/m² | - |
| 1778032822 | 16.67° C | 77% | 1016.3 hPa | 0 mm | 0 m/s | 10 W/m² | - |
| 1778032519 | 16.67° C | 77% | 1016.3 hPa | 0 mm | 0 m/s | 9 W/m² | - |
| 1778032216 | 16.67° C | 76% | 1016.3 hPa | 0 mm | 0 m/s | 10 W/m² | - |
| 1778031913 | 16.67° C | 77% | 1016.5 hPa | 0 mm | 0 m/s | 21 W/m² | - |
| 1778031609 | 16.67° C | 77% | 1016.2 hPa | 0 mm | 0.45 m/s, 87° | 10 W/m² | - |
| 1778031307 | 16.67° C | 77% | 1016.5 hPa | 0 mm | 0 m/s | 27 W/m² | - |
| 1778031003 | 16.67° C | 77% | 1016.1 hPa | 0 mm | 0 m/s | 11 W/m² | - |
| 1778030699 | 16.67° C | 77% | 1016.2 hPa | 0 mm | 0 m/s | 12 W/m² | - |
| 1778030397 | 16.67° C | 76% | 1016.2 hPa | 0 mm | 0 m/s | 12 W/m² | - |
| 1778030094 | 16.67° C | 76% | 1016.4 hPa | 0 mm | 0 m/s | 12 W/m² | - |
| 1778029790 | 16.67° C | 76% | 1016.3 hPa | 0 mm | 0.45 m/s, 91° | 12 W/m² | - |
| 1778029490 | 17.22° C | 76% | 1016.2 hPa | 0 mm | 0 m/s | 18 W/m² | - |
| 1778029185 | 17.22° C | 76% | 1016.1 hPa | 0 mm | 0 m/s | 13 W/m² | - |
| 1778028883 | 17.22° C | 75% | 1016.2 hPa | 0 mm | 0 m/s | 13 W/m² | - |
| 1778028578 | 17.22° C | 76% | 1016.1 hPa | 0 mm | 0 m/s | 14 W/m² | - |
| 1778028277 | 17.22° C | 75% | 1016.3 hPa | 0 mm | 0 m/s | 14 W/m² | - |
| 1778027972 | 17.22° C | 76% | 1016.2 hPa | 0 mm | 0 m/s | 15 W/m² | - |
| 1778027669 | 16.67° C | 77% | 1016.4 hPa | 0 mm | 0 m/s | 15 W/m² | - |
* Rain latest hour (hover to see other rain measurements)
** Current wind speed in m/s (hover to see current wind gust speed)